x

St Georges - 8nm Nw Of Crescent City, Ca (46027) Wave Buoy

6:50pm - Mon 24th Jul 2017 All times are PDT. -7 hours from GMT.

  • Sig Wave height 7.9ft
  • Swell Direction
  • Peak Period 9s
  • Average Period 7s
  • Wind
    4mph, 4mph gusts
  • Sea Temp 55°f
  • Air Temp 54°f
  • Sea Pressure 1009.2mb
  • St Georges - 8nm Nw Of Crescent City, Ca
  • St Georges - 8nm Nw Of Crescent City, Ca

More Historic Weather Station data

Upgrade to MSW Pro to gain access to the past 30 days of data for over 8000 Wavebouys and Weather Stations around the globe.

Join Pro

Comparision Forecast

View Surf forecast
   
Mon 07/24 6:50pm 8ft 9s 7s 4 4 mph 1009.2mb 55f 54f
5:50pm 9ft 9s 7s 4 7 mph 1009.3mb 54f 54f
4:50pm 9ft 8s 7s 9 11 mph 1009.4mb 53f 53f
3:50pm 8ft 9s 7s 18 22 mph 1009.4mb 53f 53f
2:50pm 8ft 8s 6s 18 22 mph 1009.8mb 51f 53f
1:50pm 7.5ft 9s 6s 20 25 mph 1009.6mb 51f 53f
12:50pm 8ft 8s 7s 13 18 mph 1010.4mb 55f 53f
11:50am 8.5ft 9s 7s 4 9 mph 1010.6mb 56f 53f
10:50am 7.5ft 8s 7s 4 7 mph 1010.9mb 56f 55f
9:50am 8ft 8s 7s 4 7 mph 1010.7mb 55f 52f
8:50am 9ft 9s 7s 4 7 mph 1010.9mb 54f 52f
7:50am 8ft 8s 7s 7 9 mph 1010.6mb 51f 51f
6:50am 10ft 9s 7s 9 13 mph 1010mb 51f 51f
5:50am 10ft 8s 7s 7 9 mph 1009.7mb 50f 52f
4:50am 9.5ft 9s 7s 11 13 mph 1009.3mb 51f 52f
3:50am 9.5ft 8s 7s 16 20 mph 1009.2mb 51f 53f
1:50am 10ft 9s 7s 16 18 mph 1009.8mb 51f 53f
12:50am 10ft 9s 7s 16 18 mph 1010.2mb 51f 53f
Sun 07/23 11:50pm 9ft 8s 7s 18 22 mph 1010.2mb 50f 53f
10:50pm 10ft 9s 7s 18 22 mph 1010.2mb 50f 53f
9:50pm 11ft 9s 7s 22 27 mph 1009.7mb 50f 54f
8:50pm 10.5ft 9s 7s 27 34 mph 1008.9mb 50f 54f
7:50pm 11ft 9s 7s 27 34 mph 1008.6mb 50f 55f
6:50pm 12ft 8s 7s 31 38 mph 1008mb 50f 55f
5:50pm 10ft 9s 7s 31 38 mph 1008.1mb 50f 54f
4:50pm 11ft 9s 7s 29 36 mph 1008.4mb 50f 54f
3:50pm 11ft 8s 7s 29 34 mph 1008.8mb 51f 54f
2:50pm 10ft 8s 7s 27 34 mph 1009.1mb 51f 54f
1:50pm 10.5ft 8s 7s 27 31 mph 1009.4mb 51f 54f
12:50pm 9.5ft 8s 7s 20 25 mph 1010.2mb 51f 54f
11:50am 9ft 8s 6s 25 29 mph 1010.3mb 51f 53f
10:50am 9ft 8s 6s 22 29 mph 1010.5mb 50f 53f
9:50am 8.5ft 8s 6s 18 20 mph 1011.2mb 50f 53f
8:50am 9.5ft 8s 7s 16 22 mph 1011.4mb 51f 53f
7:50am 10ft 8s 7s 9 13 mph 1011.4mb 51f 53f
6:50am 9ft 8s 6s 18 22 mph 1011.2mb 51f 53f
5:50am 8ft 8s 6s 18 20 mph 1011mb 51f 53f
4:50am 8.5ft 8s 6s 13 18 mph 1011.3mb 52f 53f
3:50am 8ft 8s 6s 20 22 mph 1011.3mb 52f 54f
2:50am 8ft 8s 6s 18 22 mph 1011.5mb 51f 54f
1:50am 8.5ft 7s 6s 22 27 mph 1011.8mb 51f 54f
12:50am 9ft 7s 6s 25 29 mph 1011.9mb 51f 55f
Sat 07/22 11:50pm 9ft 7s 6s 27 31 mph 1011.8mb 51f 55f
10:50pm 9ft 7s 6s 22 27 mph 1012.3mb 51f 54f
9:50pm 8.5ft 7s 6s 25 29 mph 1011.9mb 51f 54f
8:50pm 10.5ft 8s 6s 27 31 mph 1011.4mb 51f 55f
7:50pm 9.5ft 8s 6s 36 43 mph 1010.1mb 50f 56f
6:50pm 9ft 7s 6s 36 43 mph 1010mb 50f 57f
5:50pm 9ft 7s 6s 34 43 mph 1010.4mb 50f 57f
4:50pm 8ft 7s 5s 36 43 mph 1010.6mb 50f 57f
3:50pm 7ft 6s 5s 34 43 mph 1011.3mb 51f 58f
2:50pm 7.5ft 6s 5s 31 38 mph 1012.3mb 52f 57f
1:50pm 6.5ft 6s 5s 31 36 mph 1013mb 53f 57f
12:50pm 5ft 6s 5s 29 34 mph 1013.6mb 54f 56f
11:50am 4.5ft 6s 5s 20 27 mph 1014.6mb 55f 56f
10:50am 4.5ft 6s 5s 20 25 mph 1015.3mb 56f 56f
9:50am 4.5ft 6s 5s 18 25 mph 1016mb 56f 56f
8:50am 3.5ft 6s 5s 2 4 mph 1016.7mb 58f 55f
7:50am 3.5ft 6s 5s 4 4 mph 1016.6mb 56f 55f
6:50am 4ft 5s 5s 2 4 mph 1016.5mb 55f 54f
5:50am 3.5ft 5s 5s  -  2 mph 1016.5mb 56f 55f
4:50am 3.5ft 5s 5s  -  2 mph 1016.7mb 55f 54f
3:50am 3.5ft 5s 5s 2 4 mph 1017.1mb 55f 54f
2:50am 3ft 5s 5s 2 4 mph 1017.4mb 54f 55f
1:50am 3ft 5s 5s  -  2 mph 1017.8mb 54f 56f
12:50am 3ft 5s 5s 2 2 mph 1018mb 54f 56f
Fri 07/21 11:50pm 3ft 5s 4s 7 9 mph 1018mb 53f 54f
10:50pm 3.5ft 5s 4s 16 18 mph 1017.9mb 54f 55f
9:50pm 3ft 4s 4s 16 18 mph 1017.8mb 53f 55f
8:50pm 2.5ft 5s 4s 11 13 mph 1018.1mb 53f 55f
7:50pm 3ft 4s 4s 18 22 mph 1017.9mb 53f 56f
6:50pm 3ft 4s 4s 18 20 mph 1018.1mb 54f 56f
5:50pm 2.5ft 4s 4s 16 16 mph 1018.6mb 55f 56f
4:50pm 2.5ft 3s 4s 13 16 mph 1019.3mb 56f 56f
3:50pm 2ft 15s 4s 13 13 mph 1019.6mb 58f 56f
2:50pm 1.6ft 14s 5s 11 16 mph 1019.8mb 59f 57f
1:50pm 1.6ft 13s 6s 11 13 mph 1020.1mb 60f 57f
12:50pm 1.6ft 15s 5s 9 11 mph 1020.5mb 59f 56f
11:50am 1.6ft 6s 5s 9 11 mph 1020.4mb 60f 55f
10:50am 1.6ft 15s 5s 4 4 mph 1020.6mb 60f 53f
9:50am 1.6ft 15s 5s 2 2 mph 1020.6mb 59f 53f
8:50am 2ft 6s 5s 2 4 mph 1020.9mb 56f 53f
7:50am 1.6ft 6s 5s 2 4 mph 1020.6mb 54f 53f
6:50am 2ft 6s 5s 2 4 mph 1020.4mb 55f 53f
5:50am 2ft 6s 5s 2 4 mph 1020.4mb 55f 54f
4:50am 1.6ft 6s 5s 4 4 mph 1020.4mb 55f 53f
3:50am 2ft 6s 5s 4 4 mph 1020.3mb 55f 54f